sensor_id;sensor_type;location;lat;lon;timestamp;pressure;altitude;pressure_sealevel;temperature;humidity
75938;BME280;64615;32.062;34.834;2023-08-01T00:00:34;99950.63;;;28.35;61.62
75938;BME280;64615;32.062;34.834;2023-08-01T00:03:00;99947.09;;;28.35;61.82
75938;BME280;64615;32.062;34.834;2023-08-01T00:05:25;99942.72;;;28.34;61.73
75938;BME280;64615;32.062;34.834;2023-08-01T00:07:52;99945.47;;;28.34;61.25
75938;BME280;64615;32.062;34.834;2023-08-01T00:10:18;99943.53;;;28.34;60.99
75938;BME280;64615;32.062;34.834;2023-08-01T00:12:44;99948.22;;;28.34;61.11
75938;BME280;64615;32.062;34.834;2023-08-01T00:15:10;99947.09;;;28.35;61.24
75938;BME280;64615;32.062;34.834;2023-08-01T00:17:35;99949.00;;;28.34;61.09
75938;BME280;64615;32.062;34.834;2023-08-01T00:20:02;99950.94;;;28.34;61.10
75938;BME280;64615;32.062;34.834;2023-08-01T00:22:28;99947.41;;;28.33;61.77
75938;BME280;64615;32.062;34.834;2023-08-01T00:24:54;99956.41;;;28.34;61.37
75938;BME280;64615;32.062;34.834;2023-08-01T00:27:20;99956.72;;;28.32;61.49
75938;BME280;64615;32.062;34.834;2023-08-01T00:29:45;99950.44;;;28.32;61.26
75938;BME280;64615;32.062;34.834;2023-08-01T00:32:11;99950.44;;;28.32;61.45
75938;BME280;64615;32.062;34.834;2023-08-01T00:34:37;99949.97;;;28.30;61.38
75938;BME280;64615;32.062;34.834;2023-08-01T00:37:04;99948.03;;;28.30;61.37
75938;BME280;64615;32.062;34.834;2023-08-01T00:39:29;99943.38;;;28.31;61.22
75938;BME280;64615;32.062;34.834;2023-08-01T00:41:55;99952.56;;;28.35;61.12
75938;BME280;64615;32.062;34.834;2023-08-01T00:44:21;99949.00;;;28.34;60.79
75938;BME280;64615;32.062;34.834;2023-08-01T00:46:47;99949.00;;;28.34;61.01
75938;BME280;64615;32.062;34.834;2023-08-01T00:49:13;99949.00;;;28.34;60.95
75938;BME280;64615;32.062;34.834;2023-08-01T00:51:40;99957.22;;;28.34;61.05
75938;BME280;64615;32.062;34.834;2023-08-01T00:54:06;99952.56;;;28.35;61.21
75938;BME280;64615;32.062;34.834;2023-08-01T00:56:32;99959.66;;;28.36;60.85
75938;BME280;64615;32.062;34.834;2023-08-01T00:58:58;99954.19;;;28.36;61.11
75938;BME280;64615;32.062;34.834;2023-08-01T01:01:24;99956.94;;;28.36;61.02
75938;BME280;64615;32.062;34.834;2023-08-01T01:03:50;99960.47;;;28.36;61.42
75938;BME280;64615;32.062;34.834;2023-08-01T01:08:50;99963.22;;;28.36;60.97
75938;BME280;64615;32.062;34.834;2023-08-01T01:11:16;99961.28;;;28.37;61.11
75938;BME280;64615;32.062;34.834;2023-08-01T01:13:42;99958.53;;;28.37;61.13
75938;BME280;64615;32.062;34.834;2023-08-01T01:16:08;99960.47;;;28.36;61.20
75938;BME280;64615;32.062;34.834;2023-08-01T01:18:33;99966.41;;;28.38;61.12
75938;BME280;64615;32.062;34.834;2023-08-01T01:20:59;99956.13;;;28.35;61.14
75938;BME280;64615;32.062;34.834;2023-08-01T01:23:25;99959.97;;;28.34;61.12
75938;BME280;64615;32.062;34.834;2023-08-01T01:25:53;99961.91;;;28.34;61.34
75938;BME280;64615;32.062;34.834;2023-08-01T01:28:20;99949.31;;;28.33;61.39
75938;BME280;64615;32.062;34.834;2023-08-01T01:30:45;99950.44;;;28.32;60.99
75938;BME280;64615;32.062;34.834;2023-08-01T01:33:11;99955.91;;;28.32;61.39
75938;BME280;64615;32.062;34.834;2023-08-01T01:35:37;99957.06;;;28.31;61.31
75938;BME280;64615;32.062;34.834;2023-08-01T01:38:03;99954.00;;;28.32;61.20
75938;BME280;64615;32.062;34.834;2023-08-01T01:40:30;99963.50;;;28.35;61.23
75938;BME280;64615;32.062;34.834;2023-08-01T01:42:56;99966.41;;;28.38;61.25
75938;BME280;64615;32.062;34.834;2023-08-01T01:45:22;99964.50;;;28.39;61.08
75938;BME280;64615;32.062;34.834;2023-08-01T01:47:48;99963.69;;;28.38;60.96
75938;BME280;64615;32.062;34.834;2023-08-01T01:50:13;99960.13;;;28.38;60.83
75938;BME280;64615;32.062;34.834;2023-08-01T01:52:39;99960.47;;;28.36;61.02
75938;BME280;64615;32.062;34.834;2023-08-01T01:55:05;99968.19;;;28.34;61.21
75938;BME280;64615;32.062;34.834;2023-08-01T01:57:31;99967.69;;;28.32;61.16
75938;BME280;64615;32.062;34.834;2023-08-01T01:59:56;99968.81;;;28.31;61.30
75938;BME280;64615;32.062;34.834;2023-08-01T02:02:22;99974.28;;;28.31;61.13
75938;BME280;64615;32.062;34.834;2023-08-01T02:04:49;99974.28;;;28.31;61.12
75938;BME280;64615;32.062;34.834;2023-08-01T02:07:15;99978.16;;;28.30;61.21
75938;BME280;64615;32.062;34.834;2023-08-01T02:09:40;99978.44;;;28.29;61.25
75938;BME280;64615;32.062;34.834;2023-08-01T02:12:06;99977.34;;;28.30;61.40
75938;BME280;64615;32.062;34.834;2023-08-01T02:14:35;99978.16;;;28.30;61.29
75938;BME280;64615;32.062;34.834;2023-08-01T02:17:01;99987.97;;;28.31;61.39
75938;BME280;64615;32.062;34.834;2023-08-01T02:19:26;99982.50;;;28.31;61.27
75938;BME280;64615;32.062;34.834;2023-08-01T02:21:53;99982.16;;;28.33;61.19
75938;BME280;64615;32.062;34.834;2023-08-01T02:24:19;99982.97;;;28.33;61.16
75938;BME280;64615;32.062;34.834;2023-08-01T02:26:45;99988.16;;;28.35;61.29
75938;BME280;64615;32.062;34.834;2023-08-01T02:29:10;99990.88;;;28.35;61.31
75938;BME280;64615;32.062;34.834;2023-08-01T02:31:36;99990.88;;;28.35;61.12
75938;BME280;64615;32.062;34.834;2023-08-01T02:34:02;99994.44;;;28.35;60.97
75938;BME280;64615;32.062;34.834;2023-08-01T02:36:27;99980.75;;;28.35;61.35
75938;BME280;64615;32.062;34.834;2023-08-01T02:38:53;99993.00;;;28.38;61.30
75938;BME280;64615;32.062;34.834;2023-08-01T02:41:18;99993.19;;;28.41;61.10
75938;BME280;64615;32.062;34.834;2023-08-01T02:43:44;99985.44;;;28.43;60.88
75938;BME280;64615;32.062;34.834;2023-08-01T02:46:10;99991.72;;;28.44;60.89
75938;BME280;64615;32.062;34.834;2023-08-01T02:48:35;99994.78;;;28.42;60.91
75938;BME280;64615;32.062;34.834;2023-08-01T02:51:01;99989.31;;;28.42;60.98
75938;BME280;64615;32.062;34.834;2023-08-01T02:53:27;99991.88;;;28.39;61.13
75938;BME280;64615;32.062;34.834;2023-08-01T02:55:53;99986.22;;;28.35;61.23
75938;BME280;64615;32.062;34.834;2023-08-01T02:58:18;99991.19;;;28.33;61.25
75938;BME280;64615;32.062;34.834;2023-08-01T03:00:44;99993.94;;;28.33;61.17
75938;BME280;64615;32.062;34.834;2023-08-01T03:03:10;99994.75;;;28.34;61.01
75938;BME280;64615;32.062;34.834;2023-08-01T03:05:36;100002.97;;;28.34;61.02
75938;BME280;64615;32.062;34.834;2023-08-01T03:08:03;100004.56;;;28.35;60.99
75938;BME280;64615;32.062;34.834;2023-08-01T03:10:29;100006.50;;;28.34;61.17
75938;BME280;64615;32.062;34.834;2023-08-01T03:12:55;100002.66;;;28.35;61.04
75938;BME280;64615;32.062;34.834;2023-08-01T03:15:20;100008.94;;;28.36;61.14
75938;BME280;64615;32.062;34.834;2023-08-01T03:17:46;100004.56;;;28.35;61.06
75938;BME280;64615;32.062;34.834;2023-08-01T03:20:12;100005.38;;;28.35;61.21
75938;BME280;64615;32.062;34.834;2023-08-01T03:22:38;100004.56;;;28.35;61.12
75938;BME280;64615;32.062;34.834;2023-08-01T03:25:06;100004.56;;;28.35;61.16
75938;BME280;64615;32.062;34.834;2023-08-01T03:27:35;100008.94;;;28.36;60.99
75938;BME280;64615;32.062;34.834;2023-08-01T03:30:01;100016.34;;;28.35;61.08
75938;BME280;64615;32.062;34.834;2023-08-01T03:32:27;100020.69;;;28.36;61.06
75938;BME280;64615;32.062;34.834;2023-08-01T03:34:53;100022.63;;;28.36;61.20
75938;BME280;64615;32.062;34.834;2023-08-01T03:37:19;100019.56;;;28.37;61.10
75938;BME280;64615;32.062;34.834;2023-08-01T03:39:44;100027.75;;;28.37;61.13
75938;BME280;64615;32.062;34.834;2023-08-01T03:42:10;100030.84;;;28.36;61.41
75938;BME280;64615;32.062;34.834;2023-08-01T03:44:36;100035.19;;;28.37;61.22
75938;BME280;64615;32.062;34.834;2023-08-01T03:47:02;100038.41;;;28.39;61.08
75938;BME280;64615;32.062;34.834;2023-08-01T03:49:27;100031.31;;;28.38;61.46
75938;BME280;64615;32.062;34.834;2023-08-01T03:51:53;100033.75;;;28.39;61.38
75938;BME280;64615;32.062;34.834;2023-08-01T03:54:19;100050.16;;;28.39;60.94
75938;BME280;64615;32.062;34.834;2023-08-01T03:56:44;100044.88;;;28.43;61.15
75938;BME280;64615;32.062;34.834;2023-08-01T03:59:15;100042.94;;;28.43;61.19
75938;BME280;64615;32.062;34.834;2023-08-01T04:01:41;100054.69;;;28.44;60.96
75938;BME280;64615;32.062;34.834;2023-08-01T04:04:08;100053.28;;;28.46;60.76
75938;BME280;64615;32.062;34.834;2023-08-01T04:06:33;100054.88;;;28.47;60.61
75938;BME280;64615;32.062;34.834;2023-08-01T04:08:59;100056.19;;;28.50;60.63
75938;BME280;64615;32.062;34.834;2023-08-01T04:11:27;100063.00;;;28.52;60.45
75938;BME280;64615;32.062;34.834;2023-08-01T04:13:55;100059.59;;;28.55;60.37
75938;BME280;64615;32.062;34.834;2023-08-01T04:16:21;100070.25;;;28.57;60.52
75938;BME280;64615;32.062;34.834;2023-08-01T04:18:47;100059.78;;;28.59;60.49
75938;BME280;64615;32.062;34.834;2023-08-01T04:21:14;100068.00;;;28.59;60.39
75938;BME280;64615;32.062;34.834;2023-08-01T04:23:40;100077.53;;;28.61;60.23
75938;BME280;64615;32.062;34.834;2023-08-01T04:26:06;100078.34;;;28.62;60.09
75938;BME280;64615;32.062;34.834;2023-08-01T04:28:33;100079.63;;;28.64;60.24
75938;BME280;64615;32.062;34.834;2023-08-01T04:30:58;100091.09;;;28.67;60.52
75938;BME280;64615;32.062;34.834;2023-08-01T04:33:24;100089.16;;;28.67;60.08
75938;BME280;64615;32.062;34.834;2023-08-01T04:35:50;100098.66;;;28.70;60.19
75938;BME280;64615;32.062;34.834;2023-08-01T04:38:16;100086.31;;;28.72;60.20
75938;BME280;64615;32.062;34.834;2023-08-01T04:40:42;100088.09;;;28.77;60.11
75938;BME280;64615;32.062;34.834;2023-08-01T04:43:07;100092.47;;;28.78;60.13
75938;BME280;64615;32.062;34.834;2023-08-01T04:45:33;100100.34;;;28.79;59.84
75938;BME280;64615;32.062;34.834;2023-08-01T04:47:59;100104.09;;;28.83;59.87
75938;BME280;64615;32.062;34.834;2023-08-01T04:50:24;100107.00;;;28.87;60.21
75938;BME280;64615;32.062;34.834;2023-08-01T04:52:50;100113.00;;;28.89;59.83
75938;BME280;64615;32.062;34.834;2023-08-01T04:55:15;100113.97;;;28.93;60.01
75938;BME280;64615;32.062;34.834;2023-08-01T04:57:41;100114.94;;;28.97;59.69
75938;BME280;64615;32.062;34.834;2023-08-01T05:00:09;100116.38;;;28.94;59.69
75938;BME280;64615;32.062;34.834;2023-08-01T05:02:35;100114.94;;;28.97;59.81
75938;BME280;64615;32.062;34.834;2023-08-01T05:05:01;100123.97;;;28.97;59.74
75938;BME280;64615;32.062;34.834;2023-08-01T05:07:27;100121.41;;;29.01;59.70
75938;BME280;64615;32.062;34.834;2023-08-01T05:09:52;100114.81;;;29.02;59.53
75938;BME280;64615;32.062;34.834;2023-08-01T05:12:18;100125.78;;;29.02;59.35
75938;BME280;64615;32.062;34.834;2023-08-01T05:14:44;100116.59;;;29.06;59.62
75938;BME280;64615;32.062;34.834;2023-08-01T05:17:09;100128.06;;;29.09;59.30
75938;BME280;64615;32.062;34.834;2023-08-01T05:19:35;100131.63;;;29.09;59.67
75938;BME280;64615;32.062;34.834;2023-08-01T05:22:01;100127.72;;;29.10;59.17
75938;BME280;64615;32.062;34.834;2023-08-01T05:24:27;100130.34;;;29.15;59.49
75938;BME280;64615;32.062;34.834;2023-08-01T05:26:52;100133.09;;;29.15;59.43
75938;BME280;64615;32.062;34.834;2023-08-01T05:29:18;100132.28;;;29.15;59.14
75938;BME280;64615;32.062;34.834;2023-08-01T05:31:44;100122.13;;;29.15;59.22
75938;BME280;64615;32.062;34.834;2023-08-01T05:34:09;100125.66;;;29.16;59.03
75938;BME280;64615;32.062;34.834;2023-08-01T05:36:35;100125.66;;;29.16;58.98
75938;BME280;64615;32.062;34.834;2023-08-01T05:39:02;100127.28;;;29.17;59.05
75938;BME280;64615;32.062;34.834;2023-08-01T05:41:28;100134.38;;;29.18;58.90
75938;BME280;64615;32.062;34.834;2023-08-01T05:43:54;100132.97;;;29.20;58.72
75938;BME280;64615;32.062;34.834;2023-08-01T05:46:20;100127.47;;;29.20;59.00
75938;BME280;64615;32.062;34.834;2023-08-01T05:48:46;100133.44;;;29.22;58.97
75938;BME280;64615;32.062;34.834;2023-08-01T05:51:11;100134.25;;;29.23;58.93
75938;BME280;64615;32.062;34.834;2023-08-01T05:53:37;100134.75;;;29.25;58.89
75938;BME280;64615;32.062;34.834;2023-08-01T05:56:03;100134.59;;;29.30;59.08
75938;BME280;64615;32.062;34.834;2023-08-01T05:58:30;100133.47;;;29.31;59.01
75938;BME280;64615;32.062;34.834;2023-08-01T06:00:56;100134.28;;;29.31;59.24
75938;BME280;64615;32.062;34.834;2023-08-01T06:03:22;100129.94;;;29.30;58.72
75938;BME280;64615;32.062;34.834;2023-08-01T06:05:48;100143.13;;;29.28;58.99
75938;BME280;64615;32.062;34.834;2023-08-01T06:08:13;100136.84;;;29.28;59.04
75938;BME280;64615;32.062;34.834;2023-08-01T06:10:41;100134.59;;;29.30;58.80
75938;BME280;64615;32.062;34.834;2023-08-01T06:13:07;100135.72;;;29.29;58.89
75938;BME280;64615;32.062;34.834;2023-08-01T06:15:33;100132.97;;;29.29;59.06
75938;BME280;64615;32.062;34.834;2023-08-01T06:17:58;100134.91;;;29.28;58.98
75938;BME280;64615;32.062;34.834;2023-08-01T06:20:24;100138.28;;;29.25;59.24
75938;BME280;64615;32.062;34.834;2023-08-01T06:22:50;100137.47;;;29.25;59.13
75938;BME280;64615;32.062;34.834;2023-08-01T06:25:16;100138.28;;;29.25;59.24
75938;BME280;64615;32.062;34.834;2023-08-01T06:27:41;100133.13;;;29.24;58.78
75938;BME280;64615;32.062;34.834;2023-08-01T06:30:07;100138.59;;;29.24;59.32
75938;BME280;64615;32.062;34.834;2023-08-01T06:32:33;100133.44;;;29.22;59.08
75938;BME280;64615;32.062;34.834;2023-08-01T06:34:59;100139.72;;;29.23;59.08
75938;BME280;64615;32.062;34.834;2023-08-01T06:37:24;100142.47;;;29.23;59.24
75938;BME280;64615;32.062;34.834;2023-08-01T06:39:50;100138.09;;;29.22;59.26
75938;BME280;64615;32.062;34.834;2023-08-01T06:42:16;100140.84;;;29.22;59.00
75938;BME280;64615;32.062;34.834;2023-08-01T06:44:41;100137.63;;;29.20;59.36
75938;BME280;64615;32.062;34.834;2023-08-01T06:47:07;100137.28;;;29.21;59.27
75938;BME280;64615;32.062;34.834;2023-08-01T06:49:33;100132.63;;;29.22;59.37
75938;BME280;64615;32.062;34.834;2023-08-01T06:51:58;100139.22;;;29.21;59.35
75938;BME280;64615;32.062;34.834;2023-08-01T06:54:24;100143.59;;;29.22;59.14
75938;BME280;64615;32.062;34.834;2023-08-01T06:56:50;100138.44;;;29.20;59.25
75938;BME280;64615;32.062;34.834;2023-08-01T06:59:16;100140.03;;;29.21;59.33
75938;BME280;64615;32.062;34.834;2023-08-01T07:01:42;100140.84;;;29.22;59.07
75938;BME280;64615;32.062;34.834;2023-08-01T07:04:12;100142.47;;;29.23;59.03
75938;BME280;64615;32.062;34.834;2023-08-01T07:06:39;100145.22;;;29.23;58.97
75938;BME280;64615;32.062;34.834;2023-08-01T07:09:05;100138.91;;;29.22;59.32
75938;BME280;64615;32.062;34.834;2023-08-01T07:11:31;100143.28;;;29.23;59.31
75938;BME280;64615;32.062;34.834;2023-08-01T07:13:57;100133.75;;;29.21;59.53
75938;BME280;64615;32.062;34.834;2023-08-01T07:16:22;100134.41;;;29.26;59.11
75938;BME280;64615;32.062;34.834;2023-08-01T07:18:48;100133.13;;;29.24;59.38
75938;BME280;64615;32.062;34.834;2023-08-01T07:21:14;100147.94;;;29.23;59.33
75938;BME280;64615;32.062;34.834;2023-08-01T07:23:40;100136.16;;;29.22;59.22
75938;BME280;64615;32.062;34.834;2023-08-01T07:26:06;100138.09;;;29.22;59.13
75938;BME280;64615;32.062;34.834;2023-08-01T07:28:31;100136.47;;;29.21;59.33
75938;BME280;64615;32.062;34.834;2023-08-01T07:31:05;100136.97;;;29.23;59.23
75938;BME280;64615;32.062;34.834;2023-08-01T07:33:32;100128.25;;;29.21;59.21
75938;BME280;64615;32.062;34.834;2023-08-01T07:35:58;100120.03;;;29.21;59.38
75938;BME280;64615;32.062;34.834;2023-08-01T07:38:24;100127.78;;;29.19;59.18
75938;BME280;64615;32.062;34.834;2023-08-01T07:40:52;100123.09;;;29.19;59.26
75938;BME280;64615;32.062;34.834;2023-08-01T07:43:18;100130.22;;;29.20;59.22
75938;BME280;64615;32.062;34.834;2023-08-01T07:45:44;100123.91;;;29.20;59.09
75938;BME280;64615;32.062;34.834;2023-08-01T07:48:10;100134.88;;;29.20;59.32
75938;BME280;64615;32.062;34.834;2023-08-01T07:50:36;100130.53;;;29.19;59.46
75938;BME280;64615;32.062;34.834;2023-08-01T07:53:01;100133.75;;;29.21;59.27
75938;BME280;64615;32.062;34.834;2023-08-01T07:55:27;100128.91;;;29.18;59.43
75938;BME280;64615;32.062;34.834;2023-08-01T07:57:53;100125.50;;;29.21;59.36
75938;BME280;64615;32.062;34.834;2023-08-01T08:00:18;100134.06;;;29.19;59.20
75938;BME280;64615;32.062;34.834;2023-08-01T08:02:45;100130.53;;;29.19;59.14
75938;BME280;64615;32.062;34.834;2023-08-01T08:05:11;100124.22;;;29.18;59.23
75938;BME280;64615;32.062;34.834;2023-08-01T08:07:37;100130.03;;;29.17;59.54
75938;BME280;64615;32.062;34.834;2023-08-01T08:10:06;100136.31;;;29.17;59.37
75938;BME280;64615;32.062;34.834;2023-08-01T08:12:32;100128.41;;;29.16;59.38
75938;BME280;64615;32.062;34.834;2023-08-01T08:14:58;100139.38;;;29.16;59.48
75938;BME280;64615;32.062;34.834;2023-08-01T08:17:23;100131.94;;;29.16;59.58
75938;BME280;64615;32.062;34.834;2023-08-01T08:19:49;100132.28;;;29.15;59.73
75938;BME280;64615;32.062;34.834;2023-08-01T08:22:14;100139.69;;;29.14;59.80
75938;BME280;64615;32.062;34.834;2023-08-01T08:24:40;100131.78;;;29.13;59.40
75938;BME280;64615;32.062;34.834;2023-08-01T08:27:06;100134.53;;;29.13;59.65
75938;BME280;64615;32.062;34.834;2023-08-01T08:29:32;100132.09;;;29.11;59.60
75938;BME280;64615;32.062;34.834;2023-08-01T08:31:58;100130.97;;;29.12;59.45
75938;BME280;64615;32.062;34.834;2023-08-01T08:34:24;100132.91;;;29.12;59.81
75938;BME280;64615;32.062;34.834;2023-08-01T08:36:50;100137.56;;;29.11;59.55
75938;BME280;64615;32.062;34.834;2023-08-01T08:39:19;100132.09;;;29.11;59.81
75938;BME280;64615;32.062;34.834;2023-08-01T08:41:49;100129.69;;;29.10;59.55
75938;BME280;64615;32.062;34.834;2023-08-01T08:44:17;100125.31;;;29.09;59.85
75938;BME280;64615;32.062;34.834;2023-08-01T08:46:51;100130.47;;;29.10;59.83
75938;BME280;64615;32.062;34.834;2023-08-01T08:49:18;100124.22;;;29.10;59.51
75938;BME280;64615;32.062;34.834;2023-08-01T08:51:46;100123.06;;;29.11;60.05
75938;BME280;64615;32.062;34.834;2023-08-01T08:54:13;100123.06;;;29.11;59.70
75938;BME280;64615;32.062;34.834;2023-08-01T08:56:39;100130.47;;;29.10;59.48
75938;BME280;64615;32.062;34.834;2023-08-01T08:59:07;100118.72;;;29.10;59.66
75938;BME280;64615;32.062;34.834;2023-08-01T09:01:33;100128.53;;;29.11;59.85
75938;BME280;64615;32.062;34.834;2023-08-01T09:03:59;100121.13;;;29.11;60.06
75938;BME280;64615;32.062;34.834;2023-08-01T09:06:29;100119.50;;;29.10;59.95
75938;BME280;64615;32.062;34.834;2023-08-01T09:11:42;100119.84;;;29.09;59.71
75938;BME280;64615;32.062;34.834;2023-08-01T09:14:09;100130.00;;;29.08;59.66
75938;BME280;64615;32.062;34.834;2023-08-01T09:16:35;100130.59;;;29.05;59.96
75938;BME280;64615;32.062;34.834;2023-08-01T09:19:01;100127.09;;;29.04;59.93
75938;BME280;64615;32.062;34.834;2023-08-01T09:21:31;100124.34;;;29.04;59.62
75938;BME280;64615;32.062;34.834;2023-08-01T09:24:10;100123.53;;;29.04;59.68
75938;BME280;64615;32.062;34.834;2023-08-01T09:26:37;100120.00;;;29.03;59.81
75938;BME280;64615;32.062;34.834;2023-08-01T09:29:02;100125.47;;;29.03;60.02
75938;BME280;64615;32.062;34.834;2023-08-01T09:31:33;100122.22;;;29.01;59.77
75938;BME280;64615;32.062;34.834;2023-08-01T09:34:00;100126.59;;;29.02;59.85
75938;BME280;64615;32.062;34.834;2023-08-01T09:36:26;100123.84;;;29.02;59.74
75938;BME280;64615;32.062;34.834;2023-08-01T09:38:58;100121.09;;;29.02;59.96
75938;BME280;64615;32.062;34.834;2023-08-01T09:41:24;100126.59;;;29.02;59.97
75938;BME280;64615;32.062;34.834;2023-08-01T09:43:50;100116.75;;;29.01;60.04
75938;BME280;64615;32.062;34.834;2023-08-01T09:46:16;100122.22;;;29.01;59.66
75938;BME280;64615;32.062;34.834;2023-08-01T09:48:42;100116.75;;;29.01;59.79
75938;BME280;64615;32.062;34.834;2023-08-01T09:51:16;100121.41;;;29.01;60.05
75938;BME280;64615;32.062;34.834;2023-08-01T09:53:55;100119.47;;;29.01;59.70
75938;BME280;64615;32.062;34.834;2023-08-01T09:56:23;100112.88;;;29.02;60.03
75938;BME280;64615;32.062;34.834;2023-08-01T09:58:49;100114.16;;;29.05;59.99
75938;BME280;64615;32.062;34.834;2023-08-01T10:01:16;100123.03;;;29.02;59.82
75938;BME280;64615;32.062;34.834;2023-08-01T10:03:46;100130.75;;;29.00;59.84
75938;BME280;64615;32.062;34.834;2023-08-01T10:06:18;100128.34;;;28.98;59.90
75938;BME280;64615;32.062;34.834;2023-08-01T10:08:45;100122.34;;;28.96;60.09
75938;BME280;64615;32.062;34.834;2023-08-01T10:11:16;100113.31;;;28.96;60.20
75938;BME280;64615;32.062;34.834;2023-08-01T10:13:42;100114.13;;;28.96;59.81
75938;BME280;64615;32.062;34.834;2023-08-01T10:16:09;100122.34;;;28.96;59.88
75938;BME280;64615;32.062;34.834;2023-08-01T10:18:37;100122.34;;;28.96;59.84
75938;BME280;64615;32.062;34.834;2023-08-01T10:21:04;100126.72;;;28.97;59.90
75938;BME280;64615;32.062;34.834;2023-08-01T10:23:33;100124.28;;;28.96;59.98
75938;BME280;64615;32.062;34.834;2023-08-01T10:26:00;100119.63;;;28.96;59.89
75938;BME280;64615;32.062;34.834;2023-08-01T10:28:37;100124.28;;;28.96;60.30
75938;BME280;64615;32.062;34.834;2023-08-01T10:31:14;100122.06;;;28.98;60.41
75938;BME280;64615;32.062;34.834;2023-08-01T10:33:42;100113.03;;;28.97;60.00
75938;BME280;64615;32.062;34.834;2023-08-01T10:39:01;100105.41;;;28.94;59.86
75938;BME280;64615;32.062;34.834;2023-08-01T10:41:36;100113.97;;;28.93;60.04
75938;BME280;64615;32.062;34.834;2023-08-01T10:44:09;100111.22;;;28.93;60.29
75938;BME280;64615;32.062;34.834;2023-08-01T10:47:04;100105.56;;;28.89;59.96
75938;BME280;64615;32.062;34.834;2023-08-01T10:49:38;100109.91;;;28.90;60.26
75938;BME280;64615;32.062;34.834;2023-08-01T10:52:16;100106.69;;;28.88;60.01
75938;BME280;64615;32.062;34.834;2023-08-01T10:54:47;100100.88;;;28.90;60.01
75938;BME280;64615;32.062;34.834;2023-08-01T10:57:17;100102.50;;;28.91;60.12
75938;BME280;64615;32.062;34.834;2023-08-01T10:59:45;100096.22;;;28.90;60.26
75938;BME280;64615;32.062;34.834;2023-08-01T11:02:11;100095.09;;;28.91;60.43
75938;BME280;64615;32.062;34.834;2023-08-01T11:04:36;100102.19;;;28.92;60.17
75938;BME280;64615;32.062;34.834;2023-08-01T11:07:04;100098.66;;;28.92;59.97
75938;BME280;64615;32.062;34.834;2023-08-01T11:09:30;100093.16;;;28.92;60.29
75938;BME280;64615;32.062;34.834;2023-08-01T11:11:57;100090.44;;;28.92;60.29
75938;BME280;64615;32.062;34.834;2023-08-01T11:14:25;100087.19;;;28.90;60.26
75938;BME280;64615;32.062;34.834;2023-08-01T11:16:53;100091.53;;;28.91;60.08
75938;BME280;64615;32.062;34.834;2023-08-01T11:19:26;100089.63;;;28.91;60.09
75938;BME280;64615;32.062;34.834;2023-08-01T11:21:53;100096.56;;;28.89;60.08
75938;BME280;64615;32.062;34.834;2023-08-01T11:24:20;100088.94;;;28.86;60.21
75938;BME280;64615;32.062;34.834;2023-08-01T11:26:47;100093.81;;;28.89;60.11
75938;BME280;64615;32.062;34.834;2023-08-01T11:29:14;100094.13;;;28.87;60.37
75938;BME280;64615;32.062;34.834;2023-08-01T11:31:40;100086.72;;;28.88;60.33
75938;BME280;64615;32.062;34.834;2023-08-01T11:34:07;100093.31;;;28.87;60.33
75938;BME280;64615;32.062;34.834;2023-08-01T11:36:36;100087.84;;;28.87;59.95
75938;BME280;64615;32.062;34.834;2023-08-01T11:39:02;100087.03;;;28.86;60.07
75938;BME280;64615;32.062;34.834;2023-08-01T11:41:28;100084.28;;;28.86;60.52
75938;BME280;64615;32.062;34.834;2023-08-01T11:43:55;100085.41;;;28.85;60.38
75938;BME280;64615;32.062;34.834;2023-08-01T11:46:22;100078.28;;;28.84;60.43
75938;BME280;64615;32.062;34.834;2023-08-01T11:48:48;100074.44;;;28.85;59.97
75938;BME280;64615;32.062;34.834;2023-08-01T11:51:16;100075.25;;;28.86;60.00
75938;BME280;64615;32.062;34.834;2023-08-01T11:53:41;100072.50;;;28.86;60.30
75938;BME280;64615;32.062;34.834;2023-08-01T11:56:07;100074.13;;;28.87;60.02
75938;BME280;64615;32.062;34.834;2023-08-01T11:58:41;100083.16;;;28.87;60.56
75938;BME280;64615;32.062;34.834;2023-08-01T12:01:12;100081.22;;;28.88;60.19
75938;BME280;64615;32.062;34.834;2023-08-01T12:03:46;100078.50;;;28.88;60.19
75938;BME280;64615;32.062;34.834;2023-08-01T12:06:13;100074.94;;;28.87;60.00
75938;BME280;64615;32.062;34.834;2023-08-01T12:08:42;100079.31;;;28.88;59.98
75938;BME280;64615;32.062;34.834;2023-08-01T12:11:26;100070.28;;;28.88;60.37
75938;BME280;64615;32.062;34.834;2023-08-01T12:14:20;100077.19;;;28.85;60.11
75938;BME280;64615;32.062;34.834;2023-08-01T12:16:46;100072.81;;;28.84;60.49
75938;BME280;64615;32.062;34.834;2023-08-01T12:19:19;100078.28;;;28.84;60.49
75938;BME280;64615;32.062;34.834;2023-08-01T12:21:45;100066.56;;;28.84;60.18
75938;BME280;64615;32.062;34.834;2023-08-01T12:24:10;100079.44;;;28.83;60.45
75938;BME280;64615;32.062;34.834;2023-08-01T12:26:36;100065.75;;;28.83;60.18
75938;BME280;64615;32.062;34.834;2023-08-01T12:29:02;100069.28;;;28.84;60.38
75938;BME280;64615;32.062;34.834;2023-08-01T12:31:28;100064.13;;;28.82;60.45
75938;BME280;64615;32.062;34.834;2023-08-01T12:33:53;100060.56;;;28.82;60.22
75938;BME280;64615;32.062;34.834;2023-08-01T12:36:19;100067.66;;;28.83;60.19
75938;BME280;64615;32.062;34.834;2023-08-01T12:38:45;100059.75;;;28.81;60.48
75938;BME280;64615;32.062;34.834;2023-08-01T12:41:11;100063.63;;;28.80;60.23
75938;BME280;64615;32.062;34.834;2023-08-01T12:43:37;100066.88;;;28.82;60.65
75938;BME280;64615;32.062;34.834;2023-08-01T12:46:03;100064.75;;;28.79;60.40
75938;BME280;64615;32.062;34.834;2023-08-01T12:48:29;100063.63;;;28.80;60.24